Paganini — V2CL8 — position and weather

sailwx.info

Track history (hours):
 
Tides and Currents Weather Stations Pressure Air Temp Water Temp Dewpoint Dewpoint Depression Visibility Wind Speed Wind Dir Waves Ship Positions

Paganini

Last reported at 2015-May-03 04:14 UTC. Time now 2015-May-03 15:53 UTC.
Position N 33°36' W 007°36'.

Length 90 m; draft 6 m.

Type: Cargo ship. MMSI: 305040000.

Date/timePositionNaut miles runAvg speedWind from/ knotsBaromVisibWave heightAir tempDewpointWater temp
2015-May-03 04:14N 33°36' W 007°36'  
2015-Apr-28 15:16N 38°14' W 010°03'7 8.8
2015-Apr-28 14:32N 38°21' W 010°04'9 8.6
2015-Apr-28 13:29N 38°30' W 010°05'8 8.9
2015-Apr-28 12:33N 38°38' W 010°07'9 8.8
2015-Apr-28 11:33N 38°47' W 010°07'8 8.4
2015-Apr-28 10:33N 38°55' W 010°07'8 8.3
2015-Apr-28 09:33N 39°04' W 010°07'8 8.3
2015-Apr-28 08:33N 39°12' W 010°07'  
2015-Apr-25 03:32N 46°50' W 003°06'8 7.7
2015-Apr-25 02:27N 46°55' W 002°57'17 8.1
2015-Apr-25 00:18N 47°03' W 002°33'8 9.2
2015-Apr-24 23:25N 47°07' W 002°23'15 2.3
2015-Apr-24 17:07N 47°18' W 002°09'0 0.0
2015-Apr-24 06:07N 47°18' W 002°09'7 0.6
2015-Apr-23 19:12N 47°13' W 002°16'  
Track history (hours):
 
Tides and Currents Weather Stations Pressure Air Temp Water Temp Dewpoint Dewpoint Depression Visibility Wind Speed Wind Dir Waves Ship Positions

Paganini

Last reported at 2015-May-03 04:14 UTC. Time now 2015-May-03 15:53 UTC.
Position N 33°36' W 007°36'.

Length 90 m; draft 6 m.

Type: Cargo ship. MMSI: 305040000.

Date/timePositionNaut miles runAvg speedWind from/ knotsBaromVisibWave heightAir tempDewpointWater temp
2015-May-03 04:14N 33°36' W 007°36'  
2015-Apr-28 15:16N 38°14' W 010°03'7 8.8
2015-Apr-28 14:32N 38°21' W 010°04'9 8.6
2015-Apr-28 13:29N 38°30' W 010°05'8 8.9
2015-Apr-28 12:33N 38°38' W 010°07'9 8.8
2015-Apr-28 11:33N 38°47' W 010°07'8 8.4
2015-Apr-28 10:33N 38°55' W 010°07'8 8.3
2015-Apr-28 09:33N 39°04' W 010°07'8 8.3
2015-Apr-28 08:33N 39°12' W 010°07'  
2015-Apr-25 03:32N 46°50' W 003°06'8 7.7
2015-Apr-25 02:27N 46°55' W 002°57'17 8.1
2015-Apr-25 00:18N 47°03' W 002°33'8 9.2
2015-Apr-24 23:25N 47°07' W 002°23'15 2.3
2015-Apr-24 17:07N 47°18' W 002°09'0 0.0
2015-Apr-24 06:07N 47°18' W 002°09'7 0.6
2015-Apr-23 19:12N 47°13' W 002°16'  

Dump ship's entire track history